Tiempo atmosférico en la estación meteorológica de Olite/Erriberri, Navarra (390 m.)



Fecha
DESCASC
Temp. máxima en grados centígrados (hora)
DESCASC
Temp. mínima en grados centígrados (hora)
DESCASC
Temp. media en grados centígrados
DESCASC
Racha de viento máxima en m/sg (hora)
DESCASC
Velocidad máxima media en intervalos de 10 minutos(hora)
DESCASC
Precipitaciones diarias en mm
DESCASC
Precipitaciones de 00:00 a 06:00 en mm
DESCASC
Precipitaciones de 06:00 a 12:00 en mm
DESCASC
Precipitaciones de 12:00 a 18:00 en mm
DESCASC
Precipitaciones de 18:00 a 24:00 en mm
DESCASC
13-01-2021 10.3 (14:10) 4.3 (00:20) 7.3 11.67 (17:00) 6.94 (12:30) 0 0 0 0 0
12-01-2021 7.6 (14:40) 1.2 (03:20) 4.4 11.94 (01:10) 7.78 (02:00) 0 0 0 0 0
11-01-2021 3.9 (15:00) -0.6 (00:10) 1.7 18.89 (05:10) 10.28 (05:00) 0 0 0 0 0
10-01-2021 2.1 (14:40) -0.5 (00:00) 0.8 13.89 (14:50) 7.78 (14:20) 3.4 3.2 0.2 0 0
09-01-2021 0.1 (07:10) -1 (-00:0) -0.4 6.67 (19:30) 3.89 (19:20) 5.6 0 1 3 1.6
08-01-2021 3.3 (15:20) -5 (-00:0) -0.9 5.83 (16:10) 3.61 (13:00) 0 0 0 0 0
07-01-2021 2.5 (16:30) -6.2 (-00:0) -1.8 4.72 (20:40) 2.78 (20:40) 0 0 0 0 0
06-01-2021 6.2 (14:50) -3.1 (-00:0) 1.5 6.39 (15:10) 4.17 (14:00) 0 0 0 0 0
05-01-2021 4.5 (13:20) -1.5 (-00:0) 1.5 8.06 (23:20) 4.72 (23:10) 0.2 0.2 0 0 0
04-01-2021 4.9 (14:50) -2.8 (-00:0) 1.1 9.72 (17:50) 6.67 (17:50) 0.2 0 0.2 0 0
03-01-2021 6.3 (15:30) -0.5 (-00:0) 2.9 10.56 (15:10) 6.67 (16:00) 0.2 0 0 0 0.2
02-01-2021 4.5 (14:50) 0.6 (00:00) 2.6 12.78 (05:10) 7.5 (04:00) 0 0 0 0 0
01-01-2021 6.8 (14:20) 0.9 (00:00) 3.9 8.61 (18:10) 5.56 (16:40) 0 0 0 0 0
31-12-2020 7.1 (15:50) -1.5 (-00:0) 2.8 3.61 (20:10) 2.22 (20:10) 0.8 0 0 0 0.8
30-12-2020 7.1 (14:30) 0.1 (00:00) 3.6 8.89 (00:50) 5.28 (13:30) 0 0 0 0 0
29-12-2020 8.1 (14:20) -0.5 (-00:0) 3.8 12.5 (00:10) 8.06 (15:50) 0 0 0 0 0
28-12-2020 9.5 (15:40) 2.8 (00:00) 6.1 19.17 (13:50) 11.67 (13:50) 10.4 10.2 0.2 0 0
27-12-2020 4.4 (00:50) -1 (-00:0) 1.7 5 (00:50) 3.33 (01:00) 0 0 0 0 0
26-12-2020 6.2 (13:40) 2.8 (00:00) 4.5 12.78 (13:40) 6.67 (13:00) 0 0 0 0 0
25-12-2020 6.2 (00:10) 1.7 (00:00) 3.9 13.06 (13:50) 6.67 (13:50) 0.4 0.2 0 0 0.2
24-12-2020 9.8 (14:10) 5.6 (00:00) 7.7 8.89 (14:40) 6.11 (14:20) 0.2 0 0.2 0 0
23-12-2020 9.5 (16:10) 4.8 (06:50) 7.2 5.28 (23:10) 3.33 (23:00) 1.6 0 0.2 0 1.4
21-12-2020 10.6 (15:50) 3.2 (00:00) 6.9 2.5 (16:50) 1.94 (16:50) 1 0.2 0.8 0 0
20-12-2020 11.1 (16:00) 3.3 (00:00) 7.2 5.56 (14:00) 3.89 (14:10) 0.2 0 0.2 0 0
19-12-2020 10.3 (15:40) 3.9 (00:00) 7.1 7.22 (04:40) 4.72 (04:40) 0.6 0 0.2 0 0.4

Gráficas

Temp. máximas Temp. mínimas Temp. medias Precipitaciones Rachas de viento máximas Velocidades máximas media en intervalos de 10 minutos

Datos horarios

Fecha y hora oficial Temperatura (ºC) Velocidad del viento (km/h) Dirección del viento Racha (km/h) Dirección de racha Precipitación (mm) Presión (hPa) Tendencia (hPa) Humedad (%)
2021-01-17 23:00:00 8.3 8 Norte 18 Noroeste 0 -- -- 87
2021-01-17 22:00:00 9.1 7 Noroeste 16 Oeste 0 -- -- 85
2021-01-17 21:00:00 9.4 9 Noroeste 17 Noroeste 0 -- -- 84
2021-01-17 20:00:00 9.9 12 Noroeste 20 Noroeste 0 -- -- 80
2021-01-17 19:00:00 10 9 Noroeste 19 Noroeste 0 -- -- 79
2021-01-17 18:00:00 10.9 10 Noroeste 23 Noroeste 0 -- -- 76
2021-01-17 17:00:00 11.8 12 Noroeste 26 Noroeste 0 -- -- 72
2021-01-17 16:00:00 12.4 16 Noroeste 40 Noroeste 0 -- -- 69
2021-01-17 15:00:00 12.9 28 Noroeste 43 Noroeste 0 -- -- 65
2021-01-17 14:00:00 12.2 20 Oeste 30 Noroeste 0 -- -- 59
2021-01-17 13:00:00 10.8 15 Oeste 33 Noroeste 0 -- -- 60
2021-01-17 12:00:00 8.2 14 Noroeste 26 Noroeste 0 -- -- 61
2021-01-17 11:00:00 7.3 14 Noroeste 21 Oeste 0 -- -- 61
2021-01-17 10:00:00 6.3 13 Noroeste 18 Noroeste 0 -- -- 58
2021-01-17 09:00:00 4.8 10 Noroeste 18 Noroeste 0 -- -- 61
2021-01-17 08:00:00 4.7 6 Noroeste 14 Noroeste 0 -- -- 57
2021-01-17 07:00:00 2.9 7 Noroeste 13 Noroeste 0 -- -- 63
2021-01-17 06:00:00 2.5 6 Oeste 13 Oeste 0 -- -- 70
2021-01-17 05:00:00 4.1 8 Noroeste 15 Oeste 0 -- -- 60
2021-01-17 04:00:00 3.8 9 Noroeste 21 Noroeste 0 -- -- 60
2021-01-17 03:00:00 2.9 8 Noroeste 16 Noroeste 0 -- -- 64
2021-01-17 02:00:00 2.4 6 Noroeste 14 Noroeste 0 -- -- 68
2021-01-17 01:00:00 4.3 9 Noroeste 17 Noroeste 0 -- -- 61
2021-01-17 00:00:00 4.1 10 Noroeste 13 Noroeste 0 -- -- 63
2021-01-16 23:00:00 3.9 5 Norte 10 Oeste 0 -- -- 63
2021-01-16 22:00:00 5.6 6 Noroeste 13 Noroeste 0 -- -- 56
2021-01-16 21:00:00 6.8 7 Oeste 13 Oeste 0 -- -- 49
2021-01-16 20:00:00 7.3 6 Noroeste 15 Noroeste 0 -- -- 46
2021-01-16 19:00:00 8.5 8 Norte 14 Noroeste 0 -- -- 43
2021-01-16 18:00:00 10.4 8 Noroeste 13 Noroeste 0 -- -- 43
2021-01-16 17:00:00 11.7 2 Noroeste 20 Norte 0 -- -- 40
2021-01-16 16:00:00 12.5 10 Noroeste 20 Noroeste 0 -- -- 42
2021-01-16 15:00:00 11.7 13 Noroeste 29 Oeste 0 -- -- 49
2021-01-16 14:00:00 10.5 16 Noroeste 35 Noroeste 0 -- -- 51
2021-01-16 13:00:00 9.2 23 Noroeste 41 Noroeste 0 -- -- 56
2021-01-16 12:00:00 7.9 26 Noroeste 41 Noroeste 0 -- -- 61
2021-01-16 11:00:00 7.4 18 Noroeste 32 Noroeste 0 -- -- 66
2021-01-16 10:00:00 6.1 16 Noroeste 29 Noroeste 0 -- -- 70
2021-01-16 09:00:00 5.1 17 Noroeste 36 Noroeste 0 -- -- 73
2021-01-16 08:00:00 5.3 18 Noroeste 35 Noroeste 0 -- -- 71
2021-01-16 07:00:00 5.2 16 Noroeste 30 Noroeste 0 -- -- 73
2021-01-16 06:00:00 5.4 11 Oeste 27 Norte 0 -- -- 73
2021-01-16 05:00:00 5.6 12 Noroeste 33 Noroeste 0 -- -- 74
2021-01-16 04:00:00 5.8 13 Noroeste 30 Noroeste 0 -- -- 74
2021-01-16 03:00:00 5.9 9 Noroeste 23 Noroeste 0 -- -- 75
2021-01-16 02:00:00 6.3 9 Noroeste 26 Noroeste 0 -- -- 75
2021-01-16 01:00:00 6.6 12 Noroeste 29 Noroeste 0 -- -- 75
2021-01-16 00:00:00 6.5 17 Noroeste 34 Noroeste 0 -- -- 77
2021-01-15 23:00:00 6.5 21 Noroeste 36 Noroeste 0 -- -- 76
2021-01-15 22:00:00 6.9 22 Noroeste 40 Noroeste 0 -- -- 70
2021-01-15 21:00:00 6.7 18 Noroeste 42 Noroeste 0 -- -- 79
2021-01-15 20:00:00 6.9 20 Noroeste 35 Noroeste 0 -- -- 80
2021-01-15 19:00:00 6.8 18 Noroeste 37 Noroeste 0 -- -- 75
2021-01-15 18:00:00 7.4 21 Noroeste 43 Norte 0 -- -- 73
2021-01-15 17:00:00 8.1 20 Noroeste 40 Noroeste 0 -- -- 67
2021-01-15 16:00:00 8.3 19 Norte 39 Noroeste 0 -- -- 71
2021-01-15 15:00:00 9.3 26 Noroeste 48 Norte 0 -- -- 63
2021-01-15 14:00:00 9.4 19 Norte 45 Noroeste 0 -- -- 66
2021-01-15 13:00:00 9.9 26 Noroeste 53 Noroeste 0 -- -- 58
2021-01-15 12:00:00 9.2 23 Noroeste 43 Noroeste 0 -- -- 62
2021-01-15 11:00:00 7.9 20 Noroeste 34 Noroeste 0 -- -- 76
2021-01-15 10:00:00 7.1 16 Noroeste 32 Noroeste 0 -- -- 79
2021-01-15 09:00:00 6.5 17 Noroeste 23 Oeste 0 -- -- 85
2021-01-15 08:00:00 6.5 14 Noroeste 28 Noroeste 0 -- -- 82
2021-01-15 07:00:00 6.5 18 Noroeste 31 Noroeste 0 -- -- 81
2021-01-15 06:00:00 7 14 Noroeste 26 Oeste 0 -- -- 83
2021-01-15 05:00:00 7.1 15 Noroeste 28 Noroeste 0 -- -- 74
2021-01-15 04:00:00 7.2 16 Noroeste 30 Noroeste 0 -- -- 72
2021-01-15 03:00:00 6.1 11 Noroeste 26 Oeste 0 -- -- 75
2021-01-15 02:00:00 6.7 15 Noroeste 26 Noroeste 0 -- -- 79
2021-01-15 01:00:00 6.5 18 Noroeste 25 Noroeste 0 -- -- 85
2021-01-15 00:00:00 6.3 16 Noroeste 24 Noroeste -- -- -- 89
2021-01-14 23:00:00 6.3 8 Noroeste 15 Noroeste 0 -- -- 89
2021-01-14 22:00:00 6.4 6 Noroeste 15 Norte 0 -- -- 90
2021-01-14 21:00:00 6.7 7 Norte 20 Noroeste 0 -- -- 88
2021-01-14 20:00:00 6.9 10 Noroeste 18 Noroeste 0 -- -- 85
2021-01-14 19:00:00 7.5 11 Noroeste 21 Noroeste 0 -- -- 80
2021-01-14 18:00:00 8.4 6 Noroeste 17 Noroeste -- -- -- 76
2021-01-14 17:00:00 8.5 13 Norte 33 Noroeste 0 -- -- 73
2021-01-14 16:00:00 9.5 17 Norte 41 Noroeste 0 -- -- 68
2021-01-14 15:00:00 9.7 21 Norte 36 Norte 0 -- -- 64
2021-01-14 14:00:00 9.8 17 Noroeste 43 Noroeste 0 -- -- 66
2021-01-14 13:00:00 8.5 22 Norte 45 Norte 0 -- -- 69
2021-01-14 12:00:00 8.6 25 Noroeste 43 Norte 0 -- -- 67
2021-01-14 11:00:00 7.7 20 Noroeste 40 Noroeste 0 -- -- 72
2021-01-14 10:00:00 6.7 16 Noroeste 30 Noroeste 0 -- -- 77
2021-01-14 09:00:00 5.9 19 Noroeste 33 Noroeste 0 -- -- 79
2021-01-14 08:00:00 6.4 19 Noroeste 31 Oeste 0 -- -- 78
2021-01-14 07:00:00 6 23 Noroeste 36 Noroeste 0 -- -- 78
2021-01-14 06:00:00 6 18 Noroeste 35 Noroeste 0 -- -- 79
2021-01-14 05:00:00 6.9 20 Noroeste 38 Oeste 0 -- -- 76
2021-01-14 04:00:00 7 17 Noroeste 31 Noroeste 0 -- -- 77
2021-01-14 03:00:00 6.9 15 Noroeste 32 Noroeste 0 -- -- 76
2021-01-14 02:00:00 6.7 17 Noroeste 33 Noroeste 0 -- -- 77
2021-01-14 01:00:00 6.6 21 Noroeste 32 Noroeste 0 -- -- 78
2021-01-14 00:00:00 6.8 22 Noroeste 36 Noroeste 0 -- -- 78
2021-01-13 23:00:00 7 23 Noroeste 36 Noroeste 0 -- -- 78
2021-01-13 22:00:00 7.4 16 Noroeste 38 Noroeste 0 -- -- 77
2021-01-13 21:00:00 7.3 20 Noroeste 33 Noroeste 0 -- -- 78
2021-01-13 20:00:00 7.4 17 Noroeste 36 Noroeste 0 -- -- 76
2021-01-13 19:00:00 7.5 20 Noroeste 41 Noroeste 0 -- -- 74
2021-01-13 18:00:00 7.9 22 Noroeste 39 Noroeste 0 -- -- 74
2021-01-13 17:00:00 8.6 23 Noroeste 42 Noroeste 0 -- -- 70
2021-01-13 16:00:00 9.2 22 Noroeste 37 Noroeste 0 -- -- 68
2021-01-13 15:00:00 9.4 22 Noroeste 40 Noroeste 0 -- -- 69
2021-01-13 14:00:00 10 21 Noroeste 35 Noroeste 0 -- -- 66
2021-01-13 13:00:00 8.1 19 Noroeste 35 Noroeste 0 -- -- 74
2021-01-13 12:00:00 7 15 Oeste 28 Noroeste 0 -- -- 76
2021-01-13 11:00:00 6.3 15 Noroeste 30 Noroeste 0 -- -- 79
2021-01-13 10:00:00 5.9 17 Noroeste 28 Oeste 0 -- -- 79
2021-01-13 09:00:00 4.9 17 Noroeste 29 Noroeste 0 -- -- 82
2021-01-13 08:00:00 5 15 Noroeste 27 Noroeste 0 -- -- 81
2021-01-13 07:00:00 4.9 9 Oeste 21 Noroeste 0 -- -- 81
2021-01-13 06:00:00 5.5 12 Noroeste 18 Oeste 0 -- -- 80
2021-01-13 05:00:00 5 6 Oeste 18 Oeste 0 -- -- 81
2021-01-13 04:00:00 5.2 10 Oeste 22 Noroeste 0 -- -- 80
2021-01-13 03:00:00 4.8 11 Noroeste 22 Noroeste 0 -- -- 81
2021-01-13 02:00:00 5.2 13 Noroeste 25 Oeste 0 -- -- 78
2021-01-13 01:00:00 4.9 12 Noroeste 22 Noroeste 0 -- -- 77
2021-01-13 00:00:00 4.4 9 Noroeste 21 Oeste 0 -- -- 79
2021-01-12 23:00:00 4.4 13 Oeste 22 Oeste 0 -- -- 78
2021-01-12 22:00:00 4.6 10 Oeste 22 Noroeste 0 -- -- 79
2021-01-12 21:00:00 5.5 14 Noroeste 22 Noroeste 0 -- -- 74
2021-01-12 20:00:00 5.4 14 Oeste 27 Noroeste 0 -- -- 72
2021-01-12 19:00:00 6 17 Noroeste 32 Noroeste 0 -- -- 69
2021-01-12 18:00:00 6.1 15 Noroeste 33 Noroeste 0 -- -- 69
2021-01-12 17:00:00 6.4 17 Noroeste 32 Norte 0 -- -- 70
2021-01-12 16:00:00 6.4 13 Norte 27 Noroeste 0 -- -- 69
2021-01-12 15:00:00 7 13 Norte 35 Noroeste 0 -- -- 68
2021-01-12 14:00:00 7.1 19 Norte 37 Noroeste 0 -- -- 67
2021-01-12 13:00:00 6.5 21 Noroeste 36 Noroeste 0 -- -- 65
2021-01-12 12:00:00 5.4 14 Noroeste 27 Noroeste 0 -- -- 71
2021-01-12 11:00:00 5.4 15 Noroeste 29 Oeste 0 -- -- 69
2021-01-12 10:00:00 4.5 13 Noroeste 29 Noroeste 0 -- -- 72
2021-01-12 09:00:00 3.4 12 Noroeste 27 Noroeste 0 -- -- 76
2021-01-12 08:00:00 3.6 15 Noroeste 32 Noroeste 0 -- -- 75
2021-01-12 07:00:00 3.2 15 Noroeste 29 Noroeste 0 -- -- 75
2021-01-12 06:00:00 2.4 14 Noroeste 30 Noroeste 0 -- -- 75
2021-01-12 05:00:00 1.5 22 Noroeste 32 Noroeste 0 -- -- 78
2021-01-12 04:00:00 1.2 12 Oeste 41 Noroeste 0 -- -- 77
2021-01-12 03:00:00 2.2 23 Noroeste 37 Noroeste 0 -- -- 70
2021-01-12 02:00:00 2.3 28 Noroeste 43 Noroeste 0 -- -- 73
2021-01-12 01:00:00 2 17 Noroeste 31 Oeste 0 -- -- 74
2021-01-12 00:00:00 1.8 22 Noroeste 36 Oeste 0 -- -- 74
2021-01-11 23:00:00 1.6 24 Noroeste 48 Noroeste 0 -- -- 70
2021-01-11 22:00:00 1.4 23 Oeste 36 Noroeste 0 -- -- 67
2021-01-11 21:00:00 0.4 17 Oeste 34 Oeste 0 -- -- 70
2021-01-11 20:00:00 1.3 22 Noroeste 35 Noroeste 0 -- -- 68
2021-01-11 19:00:00 1.3 23 Noroeste 37 Noroeste 0 -- -- 65
2021-01-11 18:00:00 1.8 14 Oeste 35 Noroeste 0 -- -- 64
2021-01-11 17:00:00 2.9 21 Noroeste 50 Noroeste 0 -- -- 60
2021-01-11 16:00:00 3.5 26 Noroeste 47 Noroeste 0 -- -- 59
2021-01-11 15:00:00 3.9 24 Noroeste 46 Norte 0 -- -- 55
2021-01-11 14:00:00 3.4 26 Norte 49 Noroeste 0 -- -- 57
2021-01-11 13:00:00 3.1 27 Norte 47 Norte 0 -- -- 60
2021-01-11 12:00:00 3 20 Norte 36 Noroeste 0 -- -- 62
2021-01-11 11:00:00 2.8 17 Noroeste 32 Noroeste 0 -- -- 64
2021-01-11 10:00:00 2.1 17 Noroeste 35 Noroeste 0 -- -- 66
2021-01-11 09:00:00 1.1 14 Noroeste 36 Noroeste 0 -- -- 70
2021-01-11 08:00:00 0.7 9 Noroeste 32 Noroeste 0 -- -- 72
2021-01-11 07:00:00 0.8 20 Norte 60 Norte 0 -- -- 70
2021-01-11 06:00:00 1 37 Norte 68 Norte 0 -- -- 73
2021-01-11 05:00:00 0.8 37 Norte 59 Norte 0 -- -- 75
2021-01-11 04:00:00 0.4 24 Noroeste 57 Norte 0 -- -- 74
2021-01-11 03:00:00 0.5 30 Norte 57 Norte 0 -- -- 71
2021-01-11 02:00:00 -0.2 22 Noroeste 44 Oeste 0 -- -- 71
2021-01-11 01:00:00 -0.4 26 Noroeste 52 Noroeste 0 -- -- 69
2021-01-11 00:00:00 -0.5 20 Noroeste 37 Oeste 0 -- -- 70
2021-01-10 23:00:00 -0.4 19 Noroeste 48 Noroeste 0 -- -- 73
2021-01-10 22:00:00 -0.1 17 Noroeste 37 Noroeste 0 -- -- 73
2021-01-10 21:00:00 0.2 20 Noroeste 41 Noroeste 0 -- -- 76
2021-01-10 20:00:00 0.3 26 Noroeste 47 Noroeste 0 -- -- 78
2021-01-10 19:00:00 0.3 24 Noroeste 42 Noroeste 0 -- -- 80
2021-01-10 18:00:00 0.7 23 Noroeste 47 Noroeste 0 -- -- 77
2021-01-10 17:00:00 1.1 24 Noroeste 42 Noroeste 0 -- -- 75
2021-01-10 16:00:00 1.6 18 Noroeste 39 Noroeste 0 -- -- 73
2021-01-10 15:00:00 1.6 22 Noroeste 50 Noroeste 0 -- -- 75
2021-01-10 14:00:00 1.9 23 Noroeste 47 Noroeste 0 -- -- 76
2021-01-10 13:00:00 2 17 Noroeste 42 Noroeste 0 -- -- 76
2021-01-10 12:00:00 1.7 21 Noroeste 42 Noroeste 0 -- -- 76
2021-01-10 11:00:00 1.3 17 Noroeste 33 Noroeste 0 -- -- 80
2021-01-10 10:00:00 1 16 Noroeste 28 Noroeste 0 -- -- 82
2021-01-10 09:00:00 0.4 17 Noroeste 29 Noroeste 0 -- -- 83
2021-01-10 08:00:00 0.6 19 Noroeste 33 Oeste 0 -- -- 82
2021-01-10 07:00:00 0.5 21 Noroeste 33 Noroeste 0.2 -- -- 84
2021-01-10 06:00:00 0.7 22 Noroeste 35 Noroeste 0 -- -- 84
2021-01-10 05:00:00 0.8 15 Noroeste 26 Noroeste 0 -- -- 88
2021-01-10 04:00:00 0.4 11 Noroeste 24 Noroeste 1.6 -- -- 93
2021-01-10 03:00:00 -0.1 15 Noroeste 22 Noroeste 0.8 -- -- 97
2021-01-10 02:00:00 -0.2 12 Noroeste 24 Noroeste 0.4 -- -- 97
2021-01-10 01:00:00 -0.4 10 Noroeste 17 Noroeste 0.4 -- -- 97
2021-01-10 00:00:00 -0.5 9 Noroeste 14 Noroeste 1 -- -- 97
2021-01-09 23:00:00 -0.6 9 Noroeste 21 Noroeste 0.2 -- -- 96
2021-01-09 22:00:00 -0.6 11 Noroeste 20 Noroeste 0.2 -- -- 96
2021-01-09 21:00:00 -0.5 11 Noroeste 21 Noroeste 0 -- -- 94
2021-01-09 20:00:00 -0.5 12 Noroeste 24 Noroeste 0.2 -- -- 94
2021-01-09 19:00:00 -0.6 12 Noroeste 23 Norte 0 -- -- 95
2021-01-09 18:00:00 -0.6 11 Noroeste 23 Noroeste 0.4 -- -- 96
2021-01-09 17:00:00 -0.4 12 Noroeste 22 Noroeste 0.4 -- -- 95
2021-01-09 16:00:00 -0.3 12 Noroeste 21 Noroeste 0.4 -- -- 95
2021-01-09 15:00:00 -0.1 10 Noroeste 18 Noroeste 0.6 -- -- 94
2021-01-09 14:00:00 -0.1 9 Noroeste 17 Noroeste 0.6 -- -- 93
2021-01-09 13:00:00 -0.3 10 Noroeste 21 Noroeste 0.6 -- -- 93
2021-01-09 12:00:00 -0.4 12 Noroeste 21 Noroeste 0.4 -- -- 92
2021-01-09 11:00:00 -0.8 11 Noroeste 20 Noroeste 0.4 -- -- 92
2021-01-09 10:00:00 -1 7 Noroeste 11 Noroeste 0.2 -- -- 92
2021-01-09 09:00:00 -0.3 5 Norte 15 Norte 0 -- -- 83
2021-01-09 08:00:00 0.1 8 Noroeste 19 Noroeste 0 -- -- 75
2021-01-09 07:00:00 0 11 Noroeste 18 Noroeste 0 -- -- 78
2021-01-09 06:00:00 -0.2 9 Noroeste 14 Noroeste 0 -- -- 80
2021-01-09 05:00:00 -0.4 6 Noroeste 10 Noroeste 0 -- -- 81
2021-01-09 04:00:00 -0.2 9 Noroeste 11 Oeste 0 -- -- 80
2021-01-09 03:00:00 -0.2 0 Calma 8 Noroeste 0 -- -- 81
2021-01-09 02:00:00 -0.9 4 Norte 7 Norte 0 -- -- 88
2021-01-09 01:00:00 -0.9 0 Calma 4 Sur 0 -- -- 86
2021-01-09 00:00:00 -0.9 0 Calma 4 Este 0 -- -- 85
2021-01-08 23:00:00 -0.7 3 Este 5 Este 0 -- -- 85
2021-01-08 22:00:00 -0.2 0 Calma 5 Noroeste 0 -- -- 81
2021-01-08 21:00:00 0.4 3 Norte 13 Noroeste 0 -- -- 73
2021-01-08 20:00:00 1 7 Noroeste 13 Noroeste 0 -- -- 69
2021-01-08 19:00:00 0.8 10 Noroeste 18 Noroeste 0 -- -- 72
2021-01-08 18:00:00 1.5 10 Oeste 18 Noroeste 0 -- -- 71
2021-01-08 17:00:00 2.3 10 Oeste 21 Noroeste 0 -- -- 67
2021-01-08 16:00:00 3.1 8 Noroeste 18 Norte 0 -- -- 64
2021-01-08 15:00:00 3.1 9 Norte 16 Noroeste 0 -- -- 60
2021-01-08 14:00:00 2.8 10 Noroeste 20 Noroeste 0 -- -- 61
2021-01-08 13:00:00 2.7 13 Noroeste 19 Oeste 0 -- -- 62
2021-01-08 12:00:00 1.2 11 Noroeste 17 Noroeste 0 -- -- 69
2021-01-08 11:00:00 -0.2 9 Noroeste 14 Noroeste 0 -- -- 74
2021-01-08 10:00:00 -2.8 8 Noroeste 13 Noroeste 0 -- -- 83
2021-01-08 09:00:00 -4.2 6 Noroeste 11 Noroeste 0 -- -- 87
2021-01-08 08:00:00 -4.9 5 Norte 10 Oeste 0 -- -- 88
2021-01-08 07:00:00 -3.8 7 Noroeste 13 Noroeste 0 -- -- 84
2021-01-08 06:00:00 -4.7 5 Noroeste 12 Norte 0 -- -- 88
2021-01-08 05:00:00 -3.2 8 Noroeste 14 Noroeste 0 -- -- 83
2021-01-08 04:00:00 -3.1 8 Noroeste 14 Oeste 0 -- -- 83
2021-01-08 03:00:00 -2.7 7 Noroeste 19 Noroeste 0 -- -- 82
2021-01-08 02:00:00 -2.6 8 Noroeste 17 Noroeste 0 -- -- 83
2021-01-08 01:00:00 -2.5 4 Noroeste 13 Noroeste 0 -- -- 82
2021-01-08 00:00:00 -1.7 6 Noroeste 13 Noroeste 0 -- -- 78
2021-01-07 23:00:00 -1.2 9 Noroeste 15 Noroeste 0 -- -- 77
2021-01-07 22:00:00 -0.9 6 Noroeste 15 Norte 0 -- -- 77
2021-01-07 21:00:00 -0.4 8 Norte 17 Norte -- -- -- 75
2021-01-07 20:00:00 -0.3 5 Noroeste 13 Norte 0 -- -- 77
2021-01-07 19:00:00 -0.1 5 Norte 11 Noroeste 0 -- -- 79
2021-01-07 18:00:00 0.1 0 Calma 8 Sudeste 0 -- -- 80
2021-01-07 17:00:00 2.1 5 Sudeste 11 Noroeste 0 -- -- 74
2021-01-07 16:00:00 2.2 7 Noroeste 11 Noroeste 0 -- -- 72
2021-01-07 15:00:00 1.6 3 Noroeste 6 Noroeste 0 -- -- 71
2021-01-07 14:00:00 0.9 3 Noroeste 8 Noroeste 0 -- -- 77
2021-01-07 13:00:00 0.2 0 Calma 6 Oeste 0 -- -- 79
2021-01-07 12:00:00 -0.7 5 Noroeste 9 Noroeste 0 -- -- 83
2021-01-07 11:00:00 -1.8 4 Noroeste 6 Noroeste 0 -- -- 85
2021-01-07 10:00:00 -3.4 0 Calma 9 Noroeste 0 -- -- 90
2021-01-07 09:00:00 -5.2 0 Calma 6 Noroeste 0 -- -- 90
2021-01-07 08:00:00 -5.1 4 Noroeste 7 Noroeste 0 -- -- 92
2021-01-07 07:00:00 -6 0 Calma -- -- 0 -- -- 91
2021-01-07 06:00:00 -5.4 0 Calma -- -- 0 -- -- 91
2021-01-07 05:00:00 -4.5 0 Calma 3 Noroeste 0 -- -- 90
2021-01-07 04:00:00 -4.1 0 Calma 5 Noroeste 0 -- -- 92
2021-01-07 03:00:00 -4 0 Calma 7 Este 0 -- -- 89
2021-01-07 02:00:00 -2.6 2 Norte 8 Noroeste 0 -- -- 83
2021-01-07 01:00:00 -2.1 3 Noroeste 9 Oeste 0 -- -- 82
2021-01-07 00:00:00 -1.4 5 Noroeste 14 Noroeste 0 -- -- 82
2021-01-06 23:00:00 -0.5 12 Noroeste 17 Oeste 0 -- -- 80
2021-01-06 22:00:00 -0.3 11 Noroeste 14 Noroeste 0 -- -- 80
2021-01-06 21:00:00 0.7 4 Noroeste 11 Noroeste 0 -- -- 75
2021-01-06 20:00:00 0.9 5 Noroeste 11 Oeste 0 -- -- 75
2021-01-06 19:00:00 1.5 5 Noroeste 9 Noroeste 0 -- -- 72
2021-01-06 18:00:00 3.3 6 Noroeste 12 Noroeste 0 -- -- 65
2021-01-06 17:00:00 4.9 8 Norte 19 Norte 0 -- -- 56
2021-01-06 16:00:00 5.8 9 Norte 23 Noroeste 0 -- -- 49
2021-01-06 15:00:00 6.2 13 Norte 22 Noroeste 0 -- -- 48
2021-01-06 14:00:00 5.1 15 Noroeste 21 Oeste 0 -- -- 55
2021-01-06 13:00:00 4.5 11 Noroeste 21 Oeste 0 -- -- 57
2021-01-06 12:00:00 3.5 11 Noroeste 15 Oeste 0 -- -- 64
2021-01-06 11:00:00 1.7 7 Norte 12 Norte 0 -- -- 70
2021-01-06 10:00:00 -0.3 5 Noroeste 11 Noroeste 0 -- -- 78
2021-01-06 09:00:00 -2.6 5 Noroeste 10 Noroeste 0 -- -- 85
2021-01-06 08:00:00 -2.9 0 Calma 10 Noroeste 0 -- -- 86
2021-01-06 07:00:00 -2 6 Noroeste 13 Noroeste 0 -- -- 83
2021-01-06 06:00:00 -1.7 6 Noroeste 12 Noroeste 0 -- -- 83
2021-01-06 05:00:00 -1.3 8 Noroeste 16 Oeste 0 -- -- 83
2021-01-06 04:00:00 -0.9 9 Noroeste 21 Oeste 0 -- -- 81
2021-01-06 03:00:00 -0.2 10 Noroeste 17 Noroeste 0 -- -- 79
2021-01-06 02:00:00 0.2 7 Noroeste 21 Norte 0 -- -- 76
2021-01-06 01:00:00 0.5 12 Noroeste 21 Noroeste 0 -- -- 77
2021-01-06 00:00:00 0.8 11 Noroeste 29 Norte 0 -- -- 75
2021-01-05 23:00:00 0.9 15 Norte 27 Norte 0 -- -- 76
2021-01-05 22:00:00 1.3 12 Norte 27 Norte 0 -- -- 78
2021-01-05 21:00:00 1.6 13 Norte 25 Norte 0 -- -- 78
2021-01-05 20:00:00 1.5 10 Norte 22 Norte 0 -- -- 80
2021-01-05 19:00:00 1.4 6 Norte 21 Norte 0 -- -- 80
2021-01-05 18:00:00 2.2 8 Norte 18 Norte 0 -- -- 77
2021-01-05 17:00:00 3.1 9 Norte 19 Noroeste 0 -- -- 74
2021-01-05 16:00:00 3.8 12 Norte 22 Norte 0 -- -- 72
2021-01-05 15:00:00 4.2 10 Norte 20 Norte 0 -- -- 70
2021-01-05 14:00:00 4 8 Noroeste 18 Noroeste 0 -- -- 76
2021-01-05 13:00:00 3.6 10 Noroeste 16 Oeste 0 -- -- 80
2021-01-05 12:00:00 2.6 8 Noroeste 14 Norte 0 -- -- 84
2021-01-05 11:00:00 1.4 6 Noroeste 13 Noroeste 0 -- -- 91
2021-01-05 10:00:00 -0.2 2 Norte 5 Nordeste 0 -- -- 96
2021-01-05 09:00:00 -1.2 0 Calma 4 Sudoeste 0 -- -- 97
2021-01-05 08:00:00 -1.4 0 Calma -- -- 0 -- -- 95
2021-01-05 07:00:00 -0.8 0 Calma 11 Noroeste 0 -- -- 95
2021-01-05 06:00:00 -0.4 0 Calma -- -- 0 -- -- 95
2021-01-05 05:00:00 -0.1 0 Calma 4 Sudoeste 0.2 -- -- 95
2021-01-05 04:00:00 -0.1 0 Calma -- -- 0 -- -- 94
2021-01-05 03:00:00 -0.4 0 Calma 8 Noroeste 0 -- -- 92
2021-01-05 02:00:00 0.1 5 Noroeste 9 Noroeste 0 -- -- 91
2021-01-05 01:00:00 -0.5 4 Norte 9 Norte 0 -- -- 94
2021-01-05 00:00:00 -0.1 5 Noroeste 11 Noroeste 0 -- -- 93
2021-01-04 23:00:00 0.8 8 Noroeste 26 Oeste 0 -- -- 91
2021-01-04 22:00:00 1.4 12 Noroeste 19 Noroeste 0 -- -- 88
2021-01-04 21:00:00 1.3 6 Noroeste 15 Noroeste 0 -- -- 89
2021-01-04 20:00:00 2.1 8 Noroeste 14 Noroeste 0 -- -- 86
2021-01-04 19:00:00 2.3 8 Noroeste 28 Oeste 0 -- -- 89
2021-01-04 18:00:00 3 20 Noroeste 35 Noroeste 0 -- -- 80
2021-01-04 17:00:00 3.9 18 Oeste 30 Noroeste 0 -- -- 74
2021-01-04 16:00:00 4.8 10 Oeste 27 Oeste 0 -- -- 68
2021-01-04 15:00:00 4.6 8 Oeste 28 Oeste 0 -- -- 71
2021-01-04 14:00:00 4.2 15 Oeste 30 Noroeste 0 -- -- 73
2021-01-04 13:00:00 2.6 3 Sudoeste 15 Oeste 0 -- -- 88
2021-01-04 12:00:00 0.7 0 Calma 10 Sudoeste 0 -- -- 96
2021-01-04 11:00:00 -0.3 0 Calma 8 Noroeste 0.2 -- -- 98
2021-01-04 10:00:00 -0.9 0 Calma 5 Noroeste 0 -- -- 98
2021-01-04 09:00:00 -2.2 0 Calma 4 Oeste 0 -- -- 98
2021-01-04 08:00:00 -2.5 0 Calma -- -- 0 -- -- 98
2021-01-04 07:00:00 -2.8 0 Calma -- -- 0 -- -- 98
2021-01-04 06:00:00 -2.4 0 Calma 5 Sudoeste 0 -- -- 98
2021-01-04 05:00:00 -1.8 0 Calma 6 Noroeste 0 -- -- 97
2021-01-04 04:00:00 -2 0 Calma 6 Oeste 0 -- -- 97
2021-01-04 03:00:00 -1.7 0 Calma 5 Noroeste -- -- -- 96
2021-01-04 02:00:00 -1.3 0 Calma 7 Noroeste 0 -- -- 95
2021-01-04 01:00:00 -0.5 0 Calma 6 Oeste 0 -- -- 95
2021-01-04 00:00:00 -0.2 3 Norte 7 Sudeste 0 -- -- 94
2021-01-03 23:00:00 0.7 0 Calma 18 Noroeste 0 -- -- 92
2021-01-03 22:00:00 1.6 8 Noroeste 15 Oeste 0 -- -- 92
2021-01-03 21:00:00 2.5 5 Oeste 23 Oeste 0.2 -- -- 89
2021-01-03 20:00:00 3.8 11 Oeste 27 Oeste 0 -- -- 79
2021-01-03 19:00:00 3.9 10 Noroeste 21 Noroeste 0 -- -- 76
2021-01-03 18:00:00 4.9 13 Noroeste 29 Noroeste 0 -- -- 69
2021-01-03 17:00:00 5.7 13 Noroeste 33 Noroeste 0 -- -- 65
2021-01-03 16:00:00 6.2 24 Noroeste 38 Oeste 0 -- -- 63
2021-01-03 15:00:00 6.2 18 Noroeste 33 Noroeste 0 -- -- 66
2021-01-03 14:00:00 5.8 12 Noroeste 28 Oeste 0 -- -- 69
2021-01-03 13:00:00 5.5 13 Noroeste 24 Oeste 0 -- -- 73
2021-01-03 12:00:00 4.8 12 Noroeste 22 Oeste 0 -- -- 75
2021-01-03 11:00:00 3 13 Noroeste 24 Noroeste 0 -- -- 82
2021-01-03 10:00:00 2 9 Noroeste 17 Noroeste 0 -- -- 84
2021-01-03 09:00:00 0.7 7 Noroeste 17 Noroeste 0 -- -- 85
2021-01-03 08:00:00 0 9 Noroeste 13 Noroeste 0 -- -- 84
2021-01-03 07:00:00 0 5 Noroeste 12 Noroeste 0 -- -- 83
2021-01-03 06:00:00 0 7 Noroeste 10 Noroeste 0 -- -- 83
2021-01-03 05:00:00 -0.3 5 Noroeste 10 Norte 0 -- -- 84
2021-01-03 04:00:00 0.4 5 Norte 15 Noroeste 0 -- -- 82
2021-01-03 03:00:00 -0.5 7 Norte 13 Norte 0 -- -- 84
2021-01-03 02:00:00 0.1 6 Noroeste 13 Noroeste 0 -- -- 79
2021-01-03 01:00:00 0.3 8 Noroeste 23 Noroeste 0 -- -- 77
2021-01-03 00:00:00 1 11 Noroeste 26 Noroeste 0 -- -- 73
2021-01-02 23:00:00 1.2 14 Noroeste 23 Noroeste 0 -- -- 73
2021-01-02 22:00:00 1.3 13 Noroeste 23 Oeste 0 -- -- 76
2021-01-02 21:00:00 1.6 14 Noroeste 35 Norte 0 -- -- 74
2021-01-02 20:00:00 1.7 17 Noroeste 31 Noroeste 0 -- -- 75
2021-01-02 19:00:00 2.1 13 Norte 30 Norte 0 -- -- 75
2021-01-02 18:00:00 2.2 13 Noroeste 36 Norte 0 -- -- 73
2021-01-02 17:00:00 2.9 18 Norte 41 Norte 0 -- -- 67
2021-01-02 16:00:00 3.6 23 Norte 42 Norte 0 -- -- 61
2021-01-02 15:00:00 4.2 18 Norte 41 Norte 0 -- -- 57
2021-01-02 14:00:00 4.1 21 Norte 44 Norte 0 -- -- 60